Time;durP1;ratioP1;P1;durP2;ratioP2;P2;SDS_P1;SDS_P2;PMS_P1;PMS_P2;Temp;Humidity;BMP_temperature;BMP_pressure;BME280_temperature;BME280_humidity;BME280_pressure;Samples;Min_cycle;Max_cycle;Signal;HPM_P1;HPM_P2
2021/05/28 00:01:51;;;;;;;2.20;1.20;;;20.90;52.20;;;;;;5054645;28;20041;-58
2021/05/28 00:04:18;;;;;;;1.65;0.95;;;21.00;52.30;;;;;;5052041;28;20106;-57
2021/05/28 00:06:45;;;;;;;1.30;0.95;;;20.90;52.20;;;;;;5041950;28;20079;-57
2021/05/28 00:09:13;;;;;;;1.75;1.10;;;20.90;52.20;;;;;;5037838;28;20508;-57
2021/05/28 00:11:40;;;;;;;1.20;0.80;;;20.90;52.20;;;;;;5036816;28;20501;-56
2021/05/28 00:14:08;;;;;;;1.40;1.00;;;20.90;52.20;;;;;;5037104;28;20049;-56
2021/05/28 00:16:36;;;;;;;2.58;1.10;;;20.90;52.20;;;;;;5036625;28;20095;-53
2021/05/28 00:19:04;;;;;;;2.53;1.08;;;21.00;52.30;;;;;;5048318;28;20463;-56
2021/05/28 00:21:31;;;;;;;1.98;0.95;;;20.90;52.20;;;;;;5053090;28;20434;-57
2021/05/28 00:23:58;;;;;;;2.20;0.98;;;20.90;52.20;;;;;;5044690;28;20054;-57
2021/05/28 00:26:26;;;;;;;1.05;0.85;;;20.90;52.30;;;;;;5037822;28;20064;-55
2021/05/28 00:28:53;;;;;;;3.35;1.17;;;20.90;52.30;;;;;;5043687;28;20052;-58
2021/05/28 00:31:21;;;;;;;1.42;1.00;;;20.90;52.30;;;;;;5047287;28;20099;-55
2021/05/28 00:33:48;;;;;;;2.03;0.90;;;20.90;52.30;;;;;;5041939;28;20091;-56
2021/05/28 00:36:17;;;;;;;1.90;0.95;;;20.90;52.30;;;;;;5052665;28;20547;-56
2021/05/28 00:38:44;;;;;;;2.13;1.48;;;20.90;52.30;;;;;;5052933;28;20051;-54
2021/05/28 00:41:12;;;;;;;1.75;0.90;;;20.90;52.30;;;;;;5052630;28;20099;-58
2021/05/28 00:43:39;;;;;;;1.98;0.98;;;21.00;52.30;;;;;;5052501;28;20046;-53
2021/05/28 00:46:06;;;;;;;2.20;1.10;;;20.90;52.30;;;;;;5052864;28;20110;-56
2021/05/28 00:48:33;;;;;;;1.40;1.10;;;20.90;52.30;;;;;;5052483;28;20103;-57
2021/05/28 00:51:01;;;;;;;1.52;0.77;;;20.90;52.30;;;;;;5052759;28;20064;-54
2021/05/28 00:53:29;;;;;;;3.08;1.15;;;20.90;52.30;;;;;;5052262;28;20053;-55
2021/05/28 00:55:57;;;;;;;1.17;0.80;;;20.90;52.30;;;;;;5035256;28;20111;-56
2021/05/28 00:58:24;;;;;;;1.98;0.80;;;20.90;52.30;;;;;;5052283;28;20041;-56
2021/05/28 01:00:51;;;;;;;1.35;0.80;;;20.90;52.30;;;;;;5035525;28;20046;-58
2021/05/28 01:03:19;;;;;;;1.48;0.88;;;20.90;52.30;;;;;;5052282;28;20045;-58
2021/05/28 01:05:46;;;;;;;1.20;0.90;;;20.90;52.30;;;;;;5048239;28;20106;-57
2021/05/28 01:08:13;;;;;;;1.67;0.80;;;20.90;52.30;;;;;;5050107;28;20064;-55
2021/05/28 01:10:41;;;;;;;2.05;1.05;;;20.90;52.30;;;;;;5052212;28;20099;-55
2021/05/28 01:13:10;;;;;;;2.10;1.00;;;20.90;52.30;;;;;;5053221;28;20049;-56
2021/05/28 01:15:39;;;;;;;0.82;0.70;;;20.90;52.30;;;;;;5053198;28;20045;-56
2021/05/28 01:18:06;;;;;;;1.40;0.80;;;20.90;52.30;;;;;;5041507;28;20095;-57
2021/05/28 01:20:34;;;;;;;1.55;0.90;;;20.90;52.30;;;;;;5060010;28;20481;-58
2021/05/28 01:23:05;;;;;;;2.58;0.82;;;20.90;52.40;;;;;;5052020;28;20546;-57
2021/05/28 01:25:33;;;;;;;1.67;1.00;;;20.90;52.40;;;;;;5053460;28;20049;-58
2021/05/28 01:28:00;;;;;;;2.10;0.95;;;20.90;52.40;;;;;;5052709;28;20497;-57
2021/05/28 01:30:27;;;;;;;1.95;0.80;;;20.90;52.40;;;;;;5051960;28;20045;-54
2021/05/28 01:32:55;;;;;;;1.17;0.70;;;20.90;52.40;;;;;;5052244;28;20056;-54
2021/05/28 01:35:23;;;;;;;1.45;0.90;;;20.90;52.40;;;;;;5055864;28;20087;-56
2021/05/28 01:37:51;;;;;;;2.00;0.90;;;20.90;52.40;;;;;;5056440;28;20471;-54
2021/05/28 01:40:19;;;;;;;1.58;0.90;;;20.90;52.40;;;;;;5056123;28;20075;-57
2021/05/28 01:42:46;;;;;;;1.25;0.75;;;20.90;52.40;;;;;;5055117;28;20114;-54
2021/05/28 01:45:14;;;;;;;1.50;0.90;;;20.90;52.40;;;;;;5053146;28;20463;-56
2021/05/28 01:47:42;;;;;;;1.80;0.88;;;20.90;52.40;;;;;;5041782;28;20049;-56
2021/05/28 01:50:11;;;;;;;2.22;1.05;;;20.90;52.40;;;;;;5056922;28;20094;-56
2021/05/28 01:52:38;;;;;;;2.83;0.80;;;20.90;52.40;;;;;;5055686;28;20057;-57
2021/05/28 01:55:10;;;;;;;1.48;0.98;;;20.90;52.40;;;;;;5056935;28;20048;-57
2021/05/28 01:57:38;;;;;;;1.10;0.90;;;20.90;52.40;;;;;;5056431;28;20099;-57
2021/05/28 02:00:08;;;;;;;1.42;1.00;;;20.90;52.40;;;;;;5038118;28;20486;-56
2021/05/28 02:02:36;;;;;;;1.90;1.10;;;20.90;52.40;;;;;;5037811;28;20100;-56
2021/05/28 02:05:06;;;;;;;2.15;0.95;;;20.90;52.50;;;;;;5054666;28;20080;-57
2021/05/28 02:07:34;;;;;;;0.70;0.60;;;20.90;52.40;;;;;;5043060;28;20110;-56
2021/05/28 02:10:01;;;;;;;1.45;0.80;;;20.90;52.40;;;;;;5055664;28;20049;-55
2021/05/28 02:12:28;;;;;;;2.05;0.90;;;20.90;52.40;;;;;;5040687;28;20115;-55
2021/05/28 02:14:57;;;;;;;1.27;0.88;;;20.90;52.40;;;;;;5039267;28;20049;-56
2021/05/28 02:17:24;;;;;;;1.05;0.73;;;20.90;52.40;;;;;;5040255;28;20049;-56
2021/05/28 02:19:54;;;;;;;1.92;0.68;;;20.90;52.40;;;;;;5052429;28;20094;-55
2021/05/28 02:22:21;;;;;;;1.15;0.50;;;20.90;52.40;;;;;;5056391;28;20053;-56
2021/05/28 02:24:48;;;;;;;1.45;0.75;;;20.90;52.40;;;;;;5045659;28;20088;-55
2021/05/28 02:27:16;;;;;;;1.80;0.80;;;20.90;52.40;;;;;;5049008;28;20053;-57
2021/05/28 02:29:44;;;;;;;1.63;0.85;;;20.90;52.40;;;;;;5047319;28;20064;-57
2021/05/28 02:32:11;;;;;;;0.75;0.50;;;20.90;52.50;;;;;;5038898;28;20045;-53
2021/05/28 02:34:38;;;;;;;1.10;0.80;;;20.90;52.50;;;;;;5038873;28;20045;-58
2021/05/28 02:37:06;;;;;;;1.05;0.77;;;20.90;52.40;;;;;;5047621;28;20517;-58
2021/05/28 02:39:33;;;;;;;1.65;0.80;;;20.90;52.50;;;;;;5049501;28;20038;-57
2021/05/28 02:42:00;;;;;;;0.82;0.60;;;20.90;52.50;;;;;;5038854;28;20099;-56
2021/05/28 02:44:28;;;;;;;0.85;0.60;;;20.90;52.50;;;;;;5043256;28;20045;-57
2021/05/28 02:46:55;;;;;;;1.88;0.88;;;20.90;52.50;;;;;;5053507;28;20408;-57
2021/05/28 02:49:22;;;;;;;1.52;0.90;;;20.90;52.50;;;;;;5039620;28;20060;-57
2021/05/28 02:51:49;;;;;;;1.13;0.80;;;20.90;52.50;;;;;;5040590;28;20057;-58
2021/05/28 02:54:16;;;;;;;0.80;0.63;;;20.90;52.50;;;;;;5055612;28;20041;-55
2021/05/28 02:56:43;;;;;;;1.10;0.68;;;20.90;52.50;;;;;;5038377;28;20053;-55
2021/05/28 02:59:11;;;;;;;0.95;0.70;;;20.90;52.50;;;;;;5037307;28;20099;-58
2021/05/28 03:01:38;;;;;;;1.23;0.60;;;20.90;52.50;;;;;;5055203;28;20049;-57
2021/05/28 03:04:05;;;;;;;1.10;0.77;;;20.90;52.50;;;;;;5054993;28;20048;-56
2021/05/28 03:06:32;;;;;;;0.82;0.70;;;20.90;52.50;;;;;;5044330;28;20058;-54
2021/05/28 03:08:59;;;;;;;1.13;0.80;;;20.90;52.50;;;;;;5053113;28;20053;-57
2021/05/28 03:11:26;;;;;;;0.70;0.68;;;20.90;53.10;;;;;;5039976;28;20515;-55
2021/05/28 03:13:54;;;;;;;0.95;0.77;;;20.90;52.50;;;;;;5051459;28;20060;-56
2021/05/28 03:16:21;;;;;;;1.25;0.77;;;20.90;52.50;;;;;;5041908;28;20049;-58
2021/05/28 03:19:00;;;;;;;0.65;0.50;;;20.90;52.50;;;;;;5038186;28;20450;-54
2021/05/28 03:23:59;;;;;;;1.45;0.90;;;20.90;52.50;;;;;;5049546;28;20049;-55
2021/05/28 03:26:28;;;;;;;1.65;0.70;;;20.90;52.50;;;;;;5054332;28;20091;-56
2021/05/28 03:28:57;;;;;;;1.33;0.70;;;20.90;52.50;;;;;;5043649;28;20049;-58
2021/05/28 03:31:25;;;;;;;0.80;0.80;;;20.90;52.50;;;;;;5047184;28;20523;-57
2021/05/28 03:33:52;;;;;;;2.95;0.93;;;20.90;53.10;;;;;;5046262;28;20092;-57
2021/05/28 03:36:20;;;;;;;1.50;0.70;;;20.90;52.50;;;;;;5037562;28;20493;-57
2021/05/28 03:38:47;;;;;;;1.77;0.75;;;20.90;53.10;;;;;;5038979;28;20473;-57
2021/05/28 03:41:15;;;;;;;1.17;0.73;;;20.90;52.50;;;;;;5038827;28;20476;-57
2021/05/28 03:43:43;;;;;;;1.55;0.60;;;20.90;52.50;;;;;;5043612;28;20041;-57
2021/05/28 03:46:10;;;;;;;0.60;0.50;;;20.90;52.50;;;;;;5052865;28;20102;-57
2021/05/28 03:48:38;;;;;;;1.45;0.63;;;20.90;52.50;;;;;;5053450;28;20048;-57
2021/05/28 03:51:05;;;;;;;1.23;0.57;;;20.90;52.50;;;;;;5053503;28;20080;-58
2021/05/28 03:53:32;;;;;;;0.73;0.50;;;20.90;52.50;;;;;;5053439;28;20501;-58
2021/05/28 03:55:59;;;;;;;0.77;0.60;;;20.90;52.50;;;;;;5053387;28;20072;-58
2021/05/28 03:58:27;;;;;;;1.10;0.60;;;20.90;52.50;;;;;;5051679;28;20041;-58
2021/05/28 04:00:54;;;;;;;2.97;0.73;;;20.90;52.50;;;;;;5053765;28;20475;-56
2021/05/28 04:03:21;;;;;;;1.17;0.65;;;20.90;52.50;;;;;;5070575;28;20102;-58
2021/05/28 04:05:48;;;;;;;1.15;0.70;;;20.90;52.50;;;;;;5053139;28;20139;-56
2021/05/28 04:08:15;;;;;;;1.42;0.73;;;20.90;52.50;;;;;;5053642;28;20049;-57
2021/05/28 04:10:42;;;;;;;1.40;0.80;;;20.90;52.40;;;;;;5053237;28;20056;-58
2021/05/28 04:13:09;;;;;;;1.60;0.70;;;20.90;52.40;;;;;;5053034;28;20091;-56
2021/05/28 04:15:37;;;;;;;1.27;0.80;;;21.00;52.50;;;;;;5038883;28;20096;-58
2021/05/28 04:18:04;;;;;;;0.52;0.40;;;21.00;52.50;;;;;;5036661;28;20111;-57
2021/05/28 04:20:32;;;;;;;0.93;0.63;;;21.00;52.50;;;;;;5036571;28;20580;-57
2021/05/28 04:22:59;;;;;;;1.35;0.85;;;21.00;52.50;;;;;;5036544;28;20046;-58
2021/05/28 04:25:26;;;;;;;0.70;0.60;;;21.00;52.50;;;;;;5036920;28;20045;-58
2021/05/28 04:27:53;;;;;;;1.05;0.60;;;21.00;52.40;;;;;;5038894;28;20056;-57
2021/05/28 04:30:24;;;;;;;1.00;0.80;;;21.00;52.40;;;;;;5037437;28;20050;-57
2021/05/28 04:32:52;;;;;;;1.10;0.70;;;21.00;52.40;;;;;;5037646;28;20041;-58
2021/05/28 04:35:19;;;;;;;1.05;0.50;;;21.00;52.30;;;;;;5045134;28;20049;-58
2021/05/28 04:37:47;;;;;;;0.77;0.50;;;21.00;52.30;;;;;;5054009;28;20075;-57
2021/05/28 04:40:14;;;;;;;1.73;0.93;;;21.00;52.30;;;;;;5052647;28;20522;-57
2021/05/28 04:42:41;;;;;;;1.00;0.63;;;21.10;52.40;;;;;;5053831;28;20432;-57
2021/05/28 04:45:09;;;;;;;0.60;0.50;;;21.10;52.30;;;;;;5051563;28;20052;-57
2021/05/28 04:47:36;;;;;;;0.77;0.70;;;21.10;52.30;;;;;;5052807;28;20049;-57
2021/05/28 04:50:04;;;;;;;0.75;0.65;;;21.10;52.20;;;;;;5052504;28;20094;-57
2021/05/28 04:52:31;;;;;;;0.60;0.60;;;21.10;52.20;;;;;;5051465;28;20114;-55
2021/05/28 04:54:58;;;;;;;0.60;0.50;;;21.10;52.20;;;;;;5053118;28;20041;-57
2021/05/28 04:57:25;;;;;;;1.02;0.63;;;21.10;52.20;;;;;;5036491;28;20037;-55
2021/05/28 04:59:52;;;;;;;0.80;0.50;;;21.10;52.20;;;;;;5035419;28;20406;-57
2021/05/28 05:02:19;;;;;;;0.98;0.70;;;21.10;52.20;;;;;;5052883;28;20048;-57
2021/05/28 05:04:46;;;;;;;0.82;0.55;;;21.10;52.20;;;;;;5036052;28;20459;-58
2021/05/28 05:07:13;;;;;;;1.63;0.50;;;21.10;52.20;;;;;;5052843;28;20052;-58
2021/05/28 05:09:40;;;;;;;1.23;0.70;;;21.10;52.20;;;;;;5034461;28;20049;-57
2021/05/28 05:12:08;;;;;;;0.55;0.50;;;21.10;52.20;;;;;;5050842;28;20056;-58
2021/05/28 05:14:35;;;;;;;3.65;0.80;;;21.10;52.20;;;;;;5038137;28;20046;-58
2021/05/28 05:17:02;;;;;;;1.70;0.68;;;21.10;52.20;;;;;;5048949;28;20071;-58
2021/05/28 05:19:29;;;;;;;0.60;0.52;;;21.10;52.10;;;;;;5052340;28;20053;-58
2021/05/28 05:21:57;;;;;;;1.08;0.70;;;21.10;52.10;;;;;;5040897;28;20056;-56
2021/05/28 05:24:24;;;;;;;0.75;0.60;;;21.10;52.20;;;;;;5035753;28;20041;-56
2021/05/28 05:26:51;;;;;;;1.33;0.75;;;21.10;52.20;;;;;;5046174;28;20037;-57
2021/05/28 05:29:18;;;;;;;2.70;0.80;;;21.10;52.20;;;;;;5052902;28;20045;-55
2021/05/28 05:31:45;;;;;;;0.63;0.60;;;21.10;52.20;;;;;;5045957;28;20112;-57
2021/05/28 05:34:12;;;;;;;1.98;0.70;;;21.10;52.10;;;;;;5043298;28;20056;-58
2021/05/28 05:36:40;;;;;;;1.15;0.77;;;21.10;52.10;;;;;;5049654;28;20044;-57
2021/05/28 05:39:08;;;;;;;1.10;0.60;;;21.10;52.20;;;;;;5047439;28;20165;-56
2021/05/28 05:41:35;;;;;;;1.42;0.73;;;21.10;52.10;;;;;;5038092;28;20095;-58
2021/05/28 05:44:03;;;;;;;1.80;0.80;;;21.10;52.10;;;;;;5052015;28;20563;-58
2021/05/28 05:46:30;;;;;;;0.63;0.50;;;21.10;52.10;;;;;;5052134;28;20070;-58
2021/05/28 05:48:57;;;;;;;4.22;0.75;;;21.20;52.20;;;;;;5050946;28;20099;-56
2021/05/28 05:51:24;;;;;;;0.45;0.45;;;21.20;52.20;;;;;;5052233;28;20079;-58
2021/05/28 05:53:52;;;;;;;2.25;0.80;;;21.20;52.10;;;;;;5051986;28;20114;-58
2021/05/28 05:56:19;;;;;;;1.23;0.60;;;21.20;52.10;;;;;;5052003;28;20447;-57
2021/05/28 05:58:47;;;;;;;2.20;0.65;;;21.20;52.10;;;;;;5035505;28;20143;-57
2021/05/28 06:01:14;;;;;;;1.25;0.80;;;21.20;52.10;;;;;;5052768;28;20045;-57
2021/05/28 06:03:41;;;;;;;1.10;0.68;;;21.20;52.00;;;;;;5051771;28;20041;-58
2021/05/28 06:06:08;;;;;;;1.88;0.70;;;21.20;52.00;;;;;;5036731;28;20477;-56
2021/05/28 06:08:35;;;;;;;1.45;0.88;;;21.20;52.00;;;;;;5050481;28;20416;-57
2021/05/28 06:11:02;;;;;;;2.08;0.60;;;21.20;52.60;;;;;;5052011;28;20080;-58
2021/05/28 06:13:30;;;;;;;0.90;0.70;;;21.30;52.00;;;;;;5038693;28;20107;-56
2021/05/28 06:15:57;;;;;;;1.42;0.85;;;21.30;51.90;;;;;;5047397;28;20073;-58
2021/05/28 06:18:24;;;;;;;0.70;0.70;;;21.30;51.90;;;;;;5062697;28;20126;-57
2021/05/28 06:20:52;;;;;;;1.67;0.70;;;21.40;51.80;;;;;;5050591;28;20045;-57
2021/05/28 06:23:20;;;;;;;1.30;0.70;;;21.40;51.80;;;;;;5049527;28;20067;-57
2021/05/28 06:25:47;;;;;;;1.33;0.77;;;21.40;51.60;;;;;;5064895;28;20159;-58
2021/05/28 06:28:15;;;;;;;1.00;0.70;;;21.50;51.60;;;;;;5064943;28;20076;-58
2021/05/28 06:30:42;;;;;;;1.05;0.88;;;21.50;51.50;;;;;;5054401;28;20052;-56
2021/05/28 06:33:11;;;;;;;1.42;0.80;;;21.50;51.50;;;;;;5054217;28;20056;-57
2021/05/28 06:35:39;;;;;;;1.58;0.70;;;21.50;51.50;;;;;;5052889;28;20048;-58
2021/05/28 06:38:08;;;;;;;0.68;0.68;;;21.50;51.40;;;;;;5056025;28;20053;-58
2021/05/28 06:40:37;;;;;;;1.20;0.80;;;21.50;51.40;;;;;;5053803;28;20041;-57
2021/05/28 06:43:05;;;;;;;0.93;0.68;;;21.60;51.40;;;;;;5052122;28;20046;-56
2021/05/28 06:45:35;;;;;;;1.40;0.80;;;21.60;51.40;;;;;;5038649;28;20045;-57
2021/05/28 06:48:03;;;;;;;1.70;0.85;;;21.60;51.30;;;;;;5040376;28;20484;-56
2021/05/28 06:50:31;;;;;;;2.55;0.80;;;21.60;51.30;;;;;;5053470;28;20053;-58
2021/05/28 06:53:00;;;;;;;1.27;0.70;;;21.70;51.30;;;;;;5055463;28;20084;-58
2021/05/28 06:55:27;;;;;;;1.05;0.75;;;21.70;51.30;;;;;;5038458;28;20052;-58
2021/05/28 06:57:54;;;;;;;1.35;0.77;;;21.70;51.20;;;;;;5037403;28;20394;-56
2021/05/28 07:00:22;;;;;;;1.52;0.80;;;21.70;51.80;;;;;;5054550;28;20045;-58
2021/05/28 07:02:49;;;;;;;1.00;0.70;;;21.70;51.10;;;;;;5054729;28;20106;-58
2021/05/28 07:05:17;;;;;;;2.53;0.82;;;21.80;51.10;;;;;;5038482;28;20046;-56
2021/05/28 07:07:44;;;;;;;1.20;0.90;;;21.80;51.00;;;;;;5043924;28;20041;-56
2021/05/28 07:10:12;;;;;;;0.90;0.80;;;21.90;51.00;;;;;;5039882;28;20049;-58
2021/05/28 07:12:39;;;;;;;4.28;0.80;;;21.90;50.90;;;;;;5051884;28;20049;-57
2021/05/28 07:15:08;;;;;;;1.20;0.80;;;22.00;50.80;;;;;;5042408;28;20148;-58
2021/05/28 07:17:35;;;;;;;2.92;0.90;;;22.00;50.70;;;;;;5051510;28;20459;-58
2021/05/28 07:20:04;;;;;;;2.22;0.70;;;22.00;50.60;;;;;;5055262;28;20045;-59
2021/05/28 07:22:31;;;;;;;2.75;0.75;;;22.10;50.60;;;;;;5053999;28;20052;-57
2021/05/28 07:24:58;;;;;;;1.23;0.88;;;22.10;50.50;;;;;;5045417;28;20045;-55
2021/05/28 07:27:26;;;;;;;2.40;0.80;;;22.10;50.40;;;;;;5047554;28;20531;-57
2021/05/28 07:29:54;;;;;;;1.23;0.80;;;22.10;50.30;;;;;;5053566;28;20072;-57
2021/05/28 07:32:22;;;;;;;1.15;0.70;;;22.10;50.40;;;;;;5052145;28;20049;-57
2021/05/28 07:34:49;;;;;;;1.33;0.80;;;22.10;50.40;;;;;;5054822;28;20488;-56
2021/05/28 07:37:16;;;;;;;0.90;0.45;;;22.10;50.50;;;;;;5052627;28;20048;-57
2021/05/28 07:39:43;;;;;;;2.05;1.00;;;22.10;50.50;;;;;;5053809;28;20048;-58
2021/05/28 07:42:11;;;;;;;1.30;0.70;;;22.10;50.40;;;;;;5054075;28;20045;-57
2021/05/28 07:44:38;;;;;;;1.08;0.70;;;22.10;50.40;;;;;;5053451;28;20044;-57
2021/05/28 07:47:06;;;;;;;0.70;0.55;;;22.20;50.50;;;;;;5053945;28;20045;-59
2021/05/28 07:49:33;;;;;;;2.53;0.80;;;22.20;50.40;;;;;;5053078;28;20144;-58
2021/05/28 07:52:00;;;;;;;1.08;0.82;;;22.20;50.30;;;;;;5037053;28;20084;-58
2021/05/28 07:54:28;;;;;;;1.70;0.70;;;22.30;50.30;;;;;;5036243;28;20080;-59
2021/05/28 07:56:55;;;;;;;2.42;0.80;;;22.30;50.20;;;;;;5053386;28;20052;-56
2021/05/28 07:59:22;;;;;;;1.30;0.93;;;22.30;50.20;;;;;;5053608;28;20049;-57
2021/05/28 08:01:49;;;;;;;1.38;0.60;;;22.30;50.10;;;;;;5053917;28;20107;-53
2021/05/28 08:04:16;;;;;;;1.80;0.82;;;22.40;50.10;;;;;;5038414;28;20448;-58
2021/05/28 08:06:43;;;;;;;0.80;0.70;;;22.40;50.00;;;;;;5041229;28;20053;-58
2021/05/28 08:09:11;;;;;;;2.50;0.80;;;22.40;50.00;;;;;;5051876;28;20099;-56
2021/05/28 08:11:38;;;;;;;1.58;0.80;;;22.40;50.00;;;;;;5053106;28;20496;-57
2021/05/28 08:14:05;;;;;;;0.90;0.70;;;22.40;50.60;;;;;;5040901;28;20049;-58
2021/05/28 08:16:33;;;;;;;1.10;0.63;;;22.40;50.00;;;;;;5038007;28;20042;-57
2021/05/28 08:19:00;;;;;;;1.80;0.98;;;22.30;50.00;;;;;;5048630;28;20081;-59
2021/05/28 08:21:27;;;;;;;1.15;0.70;;;22.30;50.00;;;;;;5054242;28;20049;-59
2021/05/28 08:23:54;;;;;;;1.48;0.73;;;22.30;50.10;;;;;;5068378;28;20080;-58
2021/05/28 08:26:22;;;;;;;1.40;0.70;;;22.30;50.10;;;;;;5052133;28;20072;-58
2021/05/28 08:28:49;;;;;;;1.15;0.73;;;22.30;50.00;;;;;;5058713;28;20044;-57
2021/05/28 08:31:16;;;;;;;1.48;0.80;;;22.40;50.10;;;;;;5056990;28;20061;-57
2021/05/28 08:33:45;;;;;;;1.10;0.77;;;22.40;50.10;;;;;;5041583;28;20099;-58
2021/05/28 08:36:12;;;;;;;1.45;0.70;;;22.40;50.10;;;;;;5057441;28;20041;-58
2021/05/28 08:38:40;;;;;;;1.10;0.80;;;22.40;50.10;;;;;;5069130;28;20419;-58
2021/05/28 08:41:09;;;;;;;1.00;0.73;;;22.40;50.10;;;;;;5067355;28;20064;-58
2021/05/28 08:43:59;;;;;;;1.35;0.68;;;22.30;50.00;;;;;;5052472;28;20079;-59
2021/05/28 08:46:26;;;;;;;1.58;0.60;;;22.30;50.20;;;;;;5052718;28;20049;-57
2021/05/28 08:48:54;;;;;;;1.17;0.70;;;22.30;50.20;;;;;;5052899;28;20041;-58
2021/05/28 08:51:21;;;;;;;1.20;0.70;;;22.30;50.20;;;;;;5053544;28;20123;-58
2021/05/28 08:53:48;;;;;;;0.98;0.68;;;22.30;50.20;;;;;;5052204;28;20080;-57
2021/05/28 08:56:15;;;;;;;1.10;0.65;;;22.30;50.30;;;;;;5053650;28;20049;-58
2021/05/28 08:58:42;;;;;;;1.13;0.70;;;22.20;50.20;;;;;;5052164;28;20037;-58
2021/05/28 09:01:10;;;;;;;1.20;0.68;;;22.20;50.30;;;;;;5034724;28;20080;-55
2021/05/28 09:03:38;;;;;;;1.75;0.77;;;22.20;50.30;;;;;;5052451;28;20049;-56
2021/05/28 09:06:20;;;;;;;0.98;0.70;;;22.20;50.40;;;;;;5038462;28;20053;-58
2021/05/28 09:08:47;;;;;;;1.27;0.90;;;22.20;50.40;;;;;;5047933;28;20084;-58
2021/05/28 09:11:17;;;;;;;1.02;0.70;;;22.30;50.40;;;;;;5053034;28;20054;-54
2021/05/28 09:13:56;;;;;;;1.27;0.82;;;22.30;50.30;;;;;;5051562;28;20065;-58
2021/05/28 09:16:27;;;;;;;1.60;0.77;;;22.40;50.20;;;;;;5052676;28;20091;-57
2021/05/28 09:18:57;;;;;;;1.30;0.65;;;22.40;50.20;;;;;;5051902;28;20122;-57
2021/05/28 09:21:32;;;;;;;1.90;0.65;;;22.40;50.00;;;;;;5053614;28;20099;-57
2021/05/28 09:24:07;;;;;;;1.00;0.80;;;22.40;50.00;;;;;;5051094;28;20082;-58
2021/05/28 09:26:37;;;;;;;1.50;0.60;;;22.40;49.90;;;;;;5034575;28;20054;-59
2021/05/28 09:29:06;;;;;;;1.52;0.70;;;22.50;49.90;;;;;;5052071;28;20049;-58
2021/05/28 09:31:35;;;;;;;1.10;0.70;;;22.50;49.80;;;;;;5051070;28;20098;-57
2021/05/28 09:34:04;;;;;;;1.10;0.50;;;22.50;49.70;;;;;;5037435;28;20053;-58
2021/05/28 09:36:35;;;;;;;0.82;0.50;;;22.50;49.70;;;;;;5050432;28;20071;-57
2021/05/28 09:39:14;;;;;;;0.95;0.57;;;22.50;49.60;;;;;;5051777;28;20545;-58
2021/05/28 09:41:49;;;;;;;1.33;0.98;;;22.50;49.60;;;;;;5036728;28;20489;-57
2021/05/28 09:44:18;;;;;;;4.28;0.70;;;22.50;49.60;;;;;;5050815;28;20049;-58
2021/05/28 09:47:17;;;;;;;0.98;0.65;;;22.50;49.70;;;;;;5036962;28;20056;-59
2021/05/28 09:49:47;;;;;;;0.77;0.60;;;22.50;49.60;;;;;;5051582;28;20092;-59
2021/05/28 09:52:22;;;;;;;0.77;0.52;;;22.50;49.70;;;;;;5035148;28;20046;-58
2021/05/28 09:55:05;;;;;;;0.88;0.60;;;22.50;49.70;;;;;;5051074;28;20075;-57
2021/05/28 09:57:34;;;;;;;1.10;0.80;;;22.50;49.70;;;;;;5054687;28;20045;-59
2021/05/28 10:00:32;;;;;;;1.83;0.98;;;22.50;49.70;;;;;;5056105;28;20057;-56
2021/05/28 10:03:15;;;;;;;1.17;0.80;;;22.60;49.70;;;;;;5040602;28;20048;-56
2021/05/28 10:05:45;;;;;;;0.52;0.50;;;22.60;49.60;;;;;;5039749;28;20053;-57
2021/05/28 10:08:13;;;;;;;1.13;0.70;;;22.60;49.50;;;;;;5055854;28;20106;-58
2021/05/28 10:10:42;;;;;;;0.70;0.60;;;22.70;49.50;;;;;;5054358;28;20451;-57
2021/05/28 10:13:12;;;;;;;0.68;0.47;;;22.70;49.50;;;;;;5055594;28;20041;-54
2021/05/28 10:15:41;;;;;;;3.38;0.60;;;22.70;49.40;;;;;;5056471;28;20094;-55
2021/05/28 10:18:10;;;;;;;1.35;0.63;;;22.70;49.30;;;;;;5037586;28;20516;-58
2021/05/28 10:20:39;;;;;;;1.35;0.57;;;22.80;49.30;;;;;;5054891;28;20056;-56
2021/05/28 10:23:09;;;;;;;0.98;0.68;;;22.80;49.30;;;;;;5053799;28;20075;-58
2021/05/28 10:25:37;;;;;;;1.05;0.68;;;22.80;49.20;;;;;;5054347;28;20049;-58
2021/05/28 10:28:32;;;;;;;1.08;0.68;;;22.90;49.20;;;;;;5053996;28;20052;-58
2021/05/28 10:31:00;;;;;;;0.75;0.60;;;22.90;49.10;;;;;;5038134;28;20049;-55
2021/05/28 10:33:29;;;;;;;1.55;0.80;;;22.90;49.10;;;;;;5055419;28;20103;-58
2021/05/28 10:36:05;;;;;;;1.33;0.80;;;22.90;49.10;;;;;;5054508;28;20512;-57
2021/05/28 10:38:49;;;;;;;2.33;0.70;;;22.90;49.10;;;;;;5037226;28;20096;-58
2021/05/28 10:41:18;;;;;;;1.95;0.82;;;22.90;49.10;;;;;;5055219;28;20048;-58
2021/05/28 10:43:51;;;;;;;1.13;0.50;;;22.90;49.10;;;;;;5054454;28;20099;-56
2021/05/28 10:46:19;;;;;;;1.10;0.83;;;22.80;49.10;;;;;;5053847;28;20049;-57
2021/05/28 10:48:46;;;;;;;0.90;0.65;;;22.80;49.20;;;;;;5055000;28;20808;-57
2021/05/28 10:51:25;;;;;;;1.25;0.77;;;22.80;49.20;;;;;;5056097;28;20053;-56
2021/05/28 10:53:53;;;;;;;1.05;0.70;;;22.80;49.20;;;;;;5038158;28;20547;-58
2021/05/28 10:56:22;;;;;;;0.85;0.60;;;22.80;49.20;;;;;;5056088;28;20447;-57
2021/05/28 10:59:01;;;;;;;1.15;0.77;;;22.80;49.20;;;;;;5038434;28;20046;-56
2021/05/28 11:01:48;;;;;;;0.73;0.52;;;22.80;49.20;;;;;;5055235;28;20053;-58
2021/05/28 11:04:17;;;;;;;0.95;0.80;;;22.90;49.30;;;;;;5036388;28;20056;-58
2021/05/28 11:06:59;;;;;;;0.95;0.70;;;22.90;49.20;;;;;;5043200;28;20131;-57
2021/05/28 11:09:45;;;;;;;1.97;0.97;;;22.90;49.10;;;;;;5053834;28;20084;-58
2021/05/28 11:12:25;;;;;;;1.23;0.60;;;22.90;49.10;;;;;;5039433;28;20389;-58
2021/05/28 11:15:10;;;;;;;0.85;0.60;;;22.90;49.10;;;;;;5038561;28;20052;-58
2021/05/28 11:17:59;;;;;;;1.33;0.70;;;22.90;49.10;;;;;;5053021;28;20046;-58
2021/05/28 11:20:31;;;;;;;1.38;0.70;;;22.90;49.10;;;;;;5055335;28;20041;-58
2021/05/28 11:23:00;;;;;;;1.90;0.90;;;22.90;49.10;;;;;;5053994;28;20045;-56
2021/05/28 11:25:32;;;;;;;1.75;1.00;;;22.90;49.10;;;;;;5053971;28;20045;-57
2021/05/28 11:28:06;;;;;;;1.08;0.60;;;22.80;49.10;;;;;;5054132;28;20463;-57
2021/05/28 11:30:46;;;;;;;;;;;22.80;49.20;;;;;;5051760;28;20041;-57
2021/05/28 11:33:39;;;;;;;1.65;0.88;;;22.70;49.30;;;;;;5037745;28;19920;-58
2021/05/28 11:36:25;;;;;;;1.88;0.85;;;22.70;49.40;;;;;;5037920;28;20410;-57
2021/05/28 11:39:04;;;;;;;1.02;0.80;;;22.70;49.50;;;;;;5037926;28;20046;-57
2021/05/28 11:41:51;;;;;;;1.35;0.90;;;22.60;49.50;;;;;;5047108;28;20045;-57
2021/05/28 11:44:22;;;;;;;0.63;0.60;;;22.60;49.60;;;;;;5043260;28;20528;-55
2021/05/28 11:46:51;;;;;;;1.30;0.77;;;22.70;49.70;;;;;;5037687;28;20045;-59
2021/05/28 11:49:21;;;;;;;0.98;0.63;;;22.60;49.60;;;;;;5046771;28;20060;-58
2021/05/28 11:52:10;;;;;;;0.88;0.65;;;22.70;49.60;;;;;;5053645;28;20099;-55
2021/05/28 11:54:38;;;;;;;1.77;0.73;;;22.70;49.60;;;;;;5053702;28;20060;-57
2021/05/28 11:57:18;;;;;;;1.23;0.60;;;22.70;49.50;;;;;;5054402;28;20492;-57
2021/05/28 11:59:56;;;;;;;0.82;0.75;;;22.70;49.50;;;;;;5055660;28;20053;-57
2021/05/28 12:02:36;;;;;;;1.23;0.70;;;22.70;49.50;;;;;;5054920;28;20094;-57
2021/05/28 12:05:06;;;;;;;1.05;0.80;;;22.70;49.40;;;;;;5053704;28;20045;-57
2021/05/28 12:07:33;;;;;;;1.08;0.70;;;22.70;49.40;;;;;;5046605;28;20378;-57
2021/05/28 12:10:04;;;;;;;0.85;0.55;;;22.70;49.30;;;;;;5052153;28;20053;-57
2021/05/28 12:12:54;;;;;;;1.10;0.80;;;22.70;49.30;;;;;;5053367;28;20052;-57
2021/05/28 12:15:30;;;;;;;1.40;0.65;;;22.80;49.40;;;;;;5040796;28;20053;-57
2021/05/28 12:18:00;;;;;;;1.67;0.98;;;22.80;49.30;;;;;;5049425;28;20099;-58
2021/05/28 12:20:32;;;;;;;1.30;0.77;;;22.80;49.30;;;;;;5053593;28;20040;-57
2021/05/28 12:23:01;;;;;;;1.63;1.02;;;22.80;49.30;;;;;;5041186;28;20052;-56
2021/05/28 12:25:31;;;;;;;1.20;0.77;;;22.70;49.30;;;;;;5048061;28;20044;-58
2021/05/28 12:28:20;;;;;;;1.23;0.70;;;22.70;49.40;;;;;;5042932;28;20056;-57
2021/05/28 12:30:51;;;;;;;0.90;0.77;;;22.70;49.40;;;;;;5050919;28;20061;-58
2021/05/28 12:33:23;;;;;;;1.00;0.80;;;22.70;49.50;;;;;;5053181;28;20128;-57
2021/05/28 12:35:53;;;;;;;1.35;0.70;;;22.70;49.50;;;;;;5040486;28;20049;-58
2021/05/28 12:38:22;;;;;;;1.00;0.68;;;22.70;49.50;;;;;;5049143;28;20045;-57
2021/05/28 12:40:51;;;;;;;0.65;0.60;;;22.70;49.50;;;;;;5041854;28;20104;-55
2021/05/28 12:43:25;;;;;;;2.92;0.82;;;22.60;49.50;;;;;;5048071;28;20373;-54
2021/05/28 12:45:53;;;;;;;1.08;0.85;;;22.60;49.50;;;;;;5069348;28;20431;-58
2021/05/28 12:48:21;;;;;;;0.75;0.65;;;22.60;49.50;;;;;;5043132;28;20442;-58
2021/05/28 12:50:51;;;;;;;1.40;0.70;;;22.60;49.50;;;;;;5037364;28;20099;-58
2021/05/28 12:53:20;;;;;;;1.10;0.60;;;22.60;49.50;;;;;;5058499;28;20425;-58
2021/05/28 12:55:54;;;;;;;1.42;0.80;;;22.60;49.60;;;;;;5052279;28;20047;-58
2021/05/28 12:58:30;;;;;;;1.92;0.75;;;22.50;49.60;;;;;;5050956;28;20073;-59
2021/05/28 13:01:04;;;;;;;1.02;0.75;;;22.50;49.70;;;;;;5053857;28;20090;-58
2021/05/28 13:03:43;;;;;;;1.42;0.82;;;22.50;49.80;;;;;;5067951;28;20049;-58